Terminal Aerodrome Forecast
Issued by NWS Memphis, TN

Home | Current Version | Previous Version | Text Only | Print | Product List | Glossary On
Versions: 1 2 3 4 5 6 7 8 9 10 11 12 13 14 15 16 17 18
000
FTUS44 KMEG 192337 CCA
TAFJBR
TAF COR
KJBR 192337Z 2000/2024 18012G20KT P6SM SCT025 BKN040
     FM200500 18013G20KT P6SM BKN030 OVC080
     FM200900 18015G21KT P6SM VCSH OVC020
     FM201800 19017G23KT P6SM OVC015=

USA.gov is the U.S. government's official web portal to all federal, state and local government web resources and services.